Nearby METAR Reports

 

KCMA - Camarillo, California, USA
Distance from station: SSW 9mi, 15km
Updated: Tue, 16-Apr-2024 6:55pm PDT
Clear
Clear
 Wind from WSW
Wind: WSW 11 km/h
Temperature: 66°F , 19°C
Dew Point: 48°F , 9°C
Humidity: 52%
Barometer: 29.99 inHg , 1015.6 hPa
Clouds: Clear
Visibility: 16 km
2024/04/17 01:55 KCMA 170155Z 24006KT 10SM CLR 19/09 A2999 RMK AO2 SLP163 T01940089
KOXR - Oxnard, California, USA
Distance from station: SW 13mi, 21km
Updated: Tue, 16-Apr-2024 6:51pm PDT
Clear
Clear
 Wind from W
Wind: W 17 km/h
Temperature: 61°F , 16°C
Dew Point: 52°F , 11°C
Humidity: 72%
Barometer: 29.98 inHg , 1015.2 hPa
Clouds: Clear
Visibility: 16 km
2024/04/17 01:51 KOXR 170151Z 28009KT 10SM CLR 16/11 A2998 RMK AO2 SLP153 T01610111
 
KNTD - Point Mugu Nas, California, USA
Distance from station: S 16mi, 26km
Updated: Tue, 16-Apr-2024 6:55pm PDT
Few Clouds
Few Clouds
 Wind from WNW
Wind: WNW 11 km/h
Temperature: 63°F , 17°C
Dew Point: 52°F , 11°C
Humidity: 68%
Barometer: 30.00 inHg , 1015.9 hPa
Clouds: Few Clouds
Visibility: 16 km
Cloud details: Few Clouds 28000 ft
2024/04/17 01:55 KNTD 170155Z 29006KT 10SM FEW280 17/11 A3000 RMK AO2 SLP159 T01720111 PNO $
KSDB - Sandberg, California, USA
Distance from station: NE 34mi, 55km
Updated: Tue, 16-Apr-2024 6:51pm PDT
Clear
Clear
 Wind from N
Wind: N 9 km/h
Temperature: 57°F , 14°C
Dew Point: 45°F , 7°C
Humidity: 63%
Barometer: 30.12 inHg , 1020 hPa
Clouds: Clear
Visibility: 16 km
2024/04/17 01:51 KSDB 170151Z AUTO 36005KT 10SM CLR 14/07 A3012 RMK AO2 SLP172 T01440067
 
KVNY - Van Nuys, California, USA
Distance from station: ESE 34mi, 55km
Updated: Tue, 16-Apr-2024 6:51pm PDT
Clear
Clear
 Wind from WSW
Wind: WSW 11 km/h
Temperature: 75°F , 24°C
Dew Point: 45°F , 7°C
Humidity: 34%
Barometer: 29.96 inHg , 1014.6 hPa
Clouds: Clear
Visibility: 16 km
2024/04/17 01:51 KVNY 170151Z 25006KT 10SM CLR 24/07 A2996 RMK AO2 SLP140 T02440072
KWHP - La / Whiteman, California, USA
Distance from station: E 37mi, 60km
Updated: Tue, 16-Apr-2024 6:55pm PDT
Clear
Clear
 Wind from calm
Wind: Calm
Temperature: 77°F , 25°C
Dew Point: 45°F , 7°C
Humidity: 32%
Barometer: 29.99 inHg , 1015.6 hPa
Clouds: Clear
Visibility: 16 km
2024/04/17 01:55 KWHP 170155Z 00000KT 10SM SKC 25/07 A2999
 
KBUR - Burbank, California, USA
Distance from station: ESE 41mi, 66km
Updated: Tue, 16-Apr-2024 6:53pm PDT
Clear
Clear
 Wind from S
Wind: S 11 km/h
Temperature: 75°F , 24°C
Dew Point: 45°F , 7°C
Humidity: 34%
Barometer: 29.97 inHg , 1014.9 hPa
Clouds: Clear
Visibility: 16 km
2024/04/17 01:53 KBUR 170153Z 18006KT 10SM CLR 24/07 A2997 RMK AO2 SLP139 T02390072
KSMO - Santa Monica, California, USA
Distance from station: ESE 42mi, 67km
Updated: Tue, 16-Apr-2024 6:51pm PDT
Clear
Clear
 Wind from SW
Wind: SW 11 km/h
Temperature: 63°F , 17°C
Dew Point: 55°F , 13°C
Humidity: 77%
Barometer: 29.98 inHg , 1015.2 hPa
Clouds: Clear
Visibility: 16 km
2024/04/17 01:51 KSMO 170151Z 22006KT 10SM CLR 17/13 A2998 RMK AO2 SLP151 T01720128 $
 
KSBA - Santa Barbara, California, USA
Distance from station: W 45mi, 73km
Updated: Tue, 16-Apr-2024 6:53pm PDT
Clear
Clear
 Wind from ESE
Wind: ESE 7 km/h
Temperature: 63°F , 17°C
Dew Point: 57°F , 14°C
Humidity: 83%
Barometer: 29.98 inHg , 1015.2 hPa
Clouds: Clear
Visibility: 16 km
2024/04/17 01:53 KSBA 170153Z 12004KT 10SM CLR 17/14 A2998 RMK AO2 SLP151 T01720139 $
KLAX - Los Angeles, California, USA
Distance from station: SE 48mi, 78km
Updated: Tue, 16-Apr-2024 6:53pm PDT
Few Clouds
Few Clouds
 Wind from WSW
Wind: WSW 20 km/h
Temperature: 61°F , 16°C
Dew Point: 54°F , 12°C
Humidity: 77%
Barometer: 29.99 inHg , 1015.6 hPa
Clouds: Few Clouds
Visibility: 16 km
Cloud details: Few Clouds 25000 ft
2024/04/17 01:53 KLAX 170153Z 25011KT 10SM FEW250 16/12 A2999 RMK AO2 SLP153 T01610117
 
KCQT - Los Angeles, California, USA
Distance from station: ESE 50mi, 81km
Updated: Tue, 16-Apr-2024 6:47pm PDT
Clear
Clear
 Wind from WSW
Wind: WSW 7 km/h
Temperature: 66°F , 19°C
Dew Point: 50°F , 10°C
Humidity: 56%
Barometer: 29.98 inHg , 1015.2 hPa
Clouds: Clear
Visibility: 16 km
2024/04/17 01:47 KCQT 170147Z AUTO 25004KT 10SM CLR 19/10 A2998 RMK AO2 SLP152 T01890100 $